sensor_id;sensor_type;location;lat;lon;timestamp;temperature;humidity
7163;DHT22;3623;47.098;15.446;2023-11-19T00:02:08;3.20;99.90
7163;DHT22;3623;47.098;15.446;2023-11-19T00:04:36;3.20;99.90
7163;DHT22;3623;47.098;15.446;2023-11-19T00:07:04;3.20;99.90
7163;DHT22;3623;47.098;15.446;2023-11-19T00:09:32;3.30;99.90
7163;DHT22;3623;47.098;15.446;2023-11-19T00:12:05;3.20;99.90
7163;DHT22;3623;47.098;15.446;2023-11-19T00:14:33;3.10;99.90
7163;DHT22;3623;47.098;15.446;2023-11-19T00:17:00;3.20;99.90
7163;DHT22;3623;47.098;15.446;2023-11-19T00:19:27;3.20;99.90
7163;DHT22;3623;47.098;15.446;2023-11-19T00:21:55;3.10;99.90
7163;DHT22;3623;47.098;15.446;2023-11-19T00:24:22;3.10;99.90
7163;DHT22;3623;47.098;15.446;2023-11-19T00:26:49;3.10;99.90
7163;DHT22;3623;47.098;15.446;2023-11-19T00:29:18;3.20;99.90
7163;DHT22;3623;47.098;15.446;2023-11-19T00:31:47;3.30;99.90
7163;DHT22;3623;47.098;15.446;2023-11-19T00:34:14;3.40;99.90
7163;DHT22;3623;47.098;15.446;2023-11-19T00:36:41;3.20;99.90
7163;DHT22;3623;47.098;15.446;2023-11-19T00:39:10;3.30;99.90
7163;DHT22;3623;47.098;15.446;2023-11-19T00:41:41;3.40;99.90
7163;DHT22;3623;47.098;15.446;2023-11-19T00:44:08;3.20;99.90
7163;DHT22;3623;47.098;15.446;2023-11-19T00:46:36;3.30;99.90
7163;DHT22;3623;47.098;15.446;2023-11-19T00:49:03;3.30;99.90
7163;DHT22;3623;47.098;15.446;2023-11-19T00:51:31;3.20;99.90
7163;DHT22;3623;47.098;15.446;2023-11-19T00:53:58;3.10;99.90
7163;DHT22;3623;47.098;15.446;2023-11-19T00:56:26;3.30;99.90
7163;DHT22;3623;47.098;15.446;2023-11-19T00:58:54;3.10;99.90
7163;DHT22;3623;47.098;15.446;2023-11-19T01:01:21;3.10;99.90
7163;DHT22;3623;47.098;15.446;2023-11-19T01:03:50;3.20;99.90
7163;DHT22;3623;47.098;15.446;2023-11-19T01:06:27;3.10;99.90
7163;DHT22;3623;47.098;15.446;2023-11-19T01:08:54;3.10;99.90
7163;DHT22;3623;47.098;15.446;2023-11-19T01:11:23;3.10;99.90
7163;DHT22;3623;47.098;15.446;2023-11-19T01:13:51;3.10;99.90
7163;DHT22;3623;47.098;15.446;2023-11-19T01:16:19;3.10;99.90
7163;DHT22;3623;47.098;15.446;2023-11-19T01:18:47;3.80;99.90
7163;DHT22;3623;47.098;15.446;2023-11-19T01:21:16;2.20;99.90
7163;DHT22;3623;47.098;15.446;2023-11-19T01:23:44;3.00;99.90
7163;DHT22;3623;47.098;15.446;2023-11-19T01:26:12;3.10;99.90
7163;DHT22;3623;47.098;15.446;2023-11-19T01:28:39;3.30;99.90
7163;DHT22;3623;47.098;15.446;2023-11-19T01:31:11;3.10;99.90
7163;DHT22;3623;47.098;15.446;2023-11-19T01:33:40;3.10;99.90
7163;DHT22;3623;47.098;15.446;2023-11-19T01:36:13;3.10;99.90
7163;DHT22;3623;47.098;15.446;2023-11-19T01:38:42;3.10;99.90
7163;DHT22;3623;47.098;15.446;2023-11-19T01:41:09;3.00;99.90
7163;DHT22;3623;47.098;15.446;2023-11-19T01:43:40;3.00;99.90
7163;DHT22;3623;47.098;15.446;2023-11-19T01:46:16;2.90;99.90
7163;DHT22;3623;47.098;15.446;2023-11-19T01:48:45;2.90;99.90
7163;DHT22;3623;47.098;15.446;2023-11-19T01:51:13;3.00;99.90
7163;DHT22;3623;47.098;15.446;2023-11-19T01:54:06;2.80;99.90
7163;DHT22;3623;47.098;15.446;2023-11-19T01:56:37;3.10;99.90
7163;DHT22;3623;47.098;15.446;2023-11-19T01:59:10;2.70;99.90
7163;DHT22;3623;47.098;15.446;2023-11-19T02:01:39;2.70;99.90
7163;DHT22;3623;47.098;15.446;2023-11-19T02:04:09;2.80;99.90
7163;DHT22;3623;47.098;15.446;2023-11-19T02:06:39;2.90;99.90
7163;DHT22;3623;47.098;15.446;2023-11-19T02:09:13;2.70;99.90
7163;DHT22;3623;47.098;15.446;2023-11-19T02:11:42;2.80;99.90
7163;DHT22;3623;47.098;15.446;2023-11-19T02:14:10;2.80;99.90
7163;DHT22;3623;47.098;15.446;2023-11-19T02:16:37;2.80;99.90
7163;DHT22;3623;47.098;15.446;2023-11-19T02:19:04;2.70;99.90
7163;DHT22;3623;47.098;15.446;2023-11-19T02:21:34;2.70;99.90
7163;DHT22;3623;47.098;15.446;2023-11-19T02:24:03;2.60;99.90
7163;DHT22;3623;47.098;15.446;2023-11-19T02:26:47;2.60;99.90
7163;DHT22;3623;47.098;15.446;2023-11-19T02:29:18;2.60;99.90
7163;DHT22;3623;47.098;15.446;2023-11-19T02:31:45;2.70;99.90
7163;DHT22;3623;47.098;15.446;2023-11-19T02:34:12;2.50;99.90
7163;DHT22;3623;47.098;15.446;2023-11-19T02:36:41;2.60;99.90
7163;DHT22;3623;47.098;15.446;2023-11-19T02:39:09;2.60;99.90
7163;DHT22;3623;47.098;15.446;2023-11-19T02:41:38;2.50;99.90
7163;DHT22;3623;47.098;15.446;2023-11-19T02:44:06;2.60;99.90
7163;DHT22;3623;47.098;15.446;2023-11-19T02:46:34;2.50;99.90
7163;DHT22;3623;47.098;15.446;2023-11-19T02:49:01;2.50;99.90
7163;DHT22;3623;47.098;15.446;2023-11-19T02:51:29;2.60;99.90
7163;DHT22;3623;47.098;15.446;2023-11-19T02:53:56;2.50;99.90
7163;DHT22;3623;47.098;15.446;2023-11-19T02:56:24;2.50;99.90
7163;DHT22;3623;47.098;15.446;2023-11-19T02:58:52;2.60;99.90
7163;DHT22;3623;47.098;15.446;2023-11-19T03:01:23;2.80;99.90
7163;DHT22;3623;47.098;15.446;2023-11-19T03:03:57;2.40;99.90
7163;DHT22;3623;47.098;15.446;2023-11-19T03:06:24;2.70;99.90
7163;DHT22;3623;47.098;15.446;2023-11-19T03:08:52;2.60;99.90
7163;DHT22;3623;47.098;15.446;2023-11-19T03:11:19;2.50;99.90
7163;DHT22;3623;47.098;15.446;2023-11-19T03:13:47;2.50;99.90
7163;DHT22;3623;47.098;15.446;2023-11-19T03:16:14;2.50;99.90
7163;DHT22;3623;47.098;15.446;2023-11-19T03:18:42;2.50;99.90
7163;DHT22;3623;47.098;15.446;2023-11-19T03:21:11;2.50;99.90
7163;DHT22;3623;47.098;15.446;2023-11-19T03:23:39;2.50;99.90
7163;DHT22;3623;47.098;15.446;2023-11-19T03:26:10;2.40;99.90
7163;DHT22;3623;47.098;15.446;2023-11-19T03:28:39;2.50;99.90
7163;DHT22;3623;47.098;15.446;2023-11-19T03:31:06;2.50;99.90
7163;DHT22;3623;47.098;15.446;2023-11-19T03:33:37;2.50;99.90
7163;DHT22;3623;47.098;15.446;2023-11-19T03:36:05;2.60;99.90
7163;DHT22;3623;47.098;15.446;2023-11-19T03:38:35;3.10;99.90
7163;DHT22;3623;47.098;15.446;2023-11-19T03:41:10;2.50;99.90
7163;DHT22;3623;47.098;15.446;2023-11-19T03:43:38;2.60;99.90
7163;DHT22;3623;47.098;15.446;2023-11-19T03:46:16;2.60;99.90
7163;DHT22;3623;47.098;15.446;2023-11-19T03:48:44;2.60;99.90
7163;DHT22;3623;47.098;15.446;2023-11-19T03:51:12;2.50;99.90
7163;DHT22;3623;47.098;15.446;2023-11-19T03:53:44;2.70;99.90
7163;DHT22;3623;47.098;15.446;2023-11-19T03:56:12;2.60;99.90
7163;DHT22;3623;47.098;15.446;2023-11-19T03:58:40;2.60;99.90
7163;DHT22;3623;47.098;15.446;2023-11-19T04:01:11;2.50;99.90
7163;DHT22;3623;47.098;15.446;2023-11-19T04:03:39;2.70;99.90
7163;DHT22;3623;47.098;15.446;2023-11-19T04:06:07;2.60;99.90
7163;DHT22;3623;47.098;15.446;2023-11-19T04:08:38;2.60;99.90
7163;DHT22;3623;47.098;15.446;2023-11-19T04:11:08;2.60;99.90
7163;DHT22;3623;47.098;15.446;2023-11-19T04:13:36;2.50;99.90
7163;DHT22;3623;47.098;15.446;2023-11-19T04:16:04;2.50;99.90
7163;DHT22;3623;47.098;15.446;2023-11-19T04:18:33;2.60;99.90
7163;DHT22;3623;47.098;15.446;2023-11-19T04:21:01;2.40;99.90
7163;DHT22;3623;47.098;15.446;2023-11-19T04:23:28;2.60;99.90
7163;DHT22;3623;47.098;15.446;2023-11-19T04:25:55;2.00;99.90
7163;DHT22;3623;47.098;15.446;2023-11-19T04:28:24;2.50;99.90
7163;DHT22;3623;47.098;15.446;2023-11-19T04:30:55;2.50;99.90
7163;DHT22;3623;47.098;15.446;2023-11-19T04:33:29;2.50;99.90
7163;DHT22;3623;47.098;15.446;2023-11-19T04:36:00;2.50;99.90
7163;DHT22;3623;47.098;15.446;2023-11-19T04:38:31;2.60;99.90
7163;DHT22;3623;47.098;15.446;2023-11-19T04:40:59;2.60;99.90
7163;DHT22;3623;47.098;15.446;2023-11-19T04:43:35;2.40;99.90
7163;DHT22;3623;47.098;15.446;2023-11-19T04:46:04;2.10;99.90
7163;DHT22;3623;47.098;15.446;2023-11-19T04:48:33;2.30;99.90
7163;DHT22;3623;47.098;15.446;2023-11-19T04:51:00;2.20;99.90
7163;DHT22;3623;47.098;15.446;2023-11-19T04:53:28;2.20;99.90
7163;DHT22;3623;47.098;15.446;2023-11-19T04:55:55;2.10;99.90
7163;DHT22;3623;47.098;15.446;2023-11-19T04:58:22;2.00;99.90
7163;DHT22;3623;47.098;15.446;2023-11-19T05:00:51;2.10;99.90
7163;DHT22;3623;47.098;15.446;2023-11-19T05:03:18;1.60;99.90
7163;DHT22;3623;47.098;15.446;2023-11-19T05:05:45;1.90;99.90
7163;DHT22;3623;47.098;15.446;2023-11-19T05:08:13;1.70;99.90
7163;DHT22;3623;47.098;15.446;2023-11-19T05:10:40;1.80;99.90
7163;DHT22;3623;47.098;15.446;2023-11-19T05:13:07;1.80;99.90
7163;DHT22;3623;47.098;15.446;2023-11-19T05:15:34;1.60;99.90
7163;DHT22;3623;47.098;15.446;2023-11-19T05:18:03;1.70;99.90
7163;DHT22;3623;47.098;15.446;2023-11-19T05:20:30;1.70;99.90
7163;DHT22;3623;47.098;15.446;2023-11-19T05:23:00;1.70;99.90
7163;DHT22;3623;47.098;15.446;2023-11-19T05:25:27;1.80;99.90
7163;DHT22;3623;47.098;15.446;2023-11-19T05:27:54;1.80;99.90
7163;DHT22;3623;47.098;15.446;2023-11-19T05:30:21;1.80;99.90
7163;DHT22;3623;47.098;15.446;2023-11-19T05:32:48;1.80;99.90
7163;DHT22;3623;47.098;15.446;2023-11-19T05:35:17;1.90;99.90
7163;DHT22;3623;47.098;15.446;2023-11-19T05:37:44;1.70;99.90
7163;DHT22;3623;47.098;15.446;2023-11-19T05:40:11;1.80;99.90
7163;DHT22;3623;47.098;15.446;2023-11-19T05:42:42;1.80;99.90
7163;DHT22;3623;47.098;15.446;2023-11-19T05:45:11;1.80;99.90
7163;DHT22;3623;47.098;15.446;2023-11-19T05:47:38;1.90;99.90
7163;DHT22;3623;47.098;15.446;2023-11-19T05:50:06;1.90;99.90
7163;DHT22;3623;47.098;15.446;2023-11-19T05:52:35;2.20;99.90
7163;DHT22;3623;47.098;15.446;2023-11-19T05:55:07;2.00;99.90
7163;DHT22;3623;47.098;15.446;2023-11-19T05:57:36;1.90;99.90
7163;DHT22;3623;47.098;15.446;2023-11-19T06:00:05;2.00;99.90
7163;DHT22;3623;47.098;15.446;2023-11-19T06:02:35;2.00;99.90
7163;DHT22;3623;47.098;15.446;2023-11-19T06:05:08;2.20;99.90
7163;DHT22;3623;47.098;15.446;2023-11-19T06:07:37;1.50;99.90
7163;DHT22;3623;47.098;15.446;2023-11-19T06:10:05;2.10;99.90
7163;DHT22;3623;47.098;15.446;2023-11-19T06:12:33;2.10;99.90
7163;DHT22;3623;47.098;15.446;2023-11-19T06:15:05;2.10;99.90
7163;DHT22;3623;47.098;15.446;2023-11-19T06:17:34;2.40;99.90
7163;DHT22;3623;47.098;15.446;2023-11-19T06:20:01;2.20;99.90
7163;DHT22;3623;47.098;15.446;2023-11-19T06:22:30;2.30;99.90
7163;DHT22;3623;47.098;15.446;2023-11-19T06:24:58;2.10;99.90
7163;DHT22;3623;47.098;15.446;2023-11-19T06:27:25;2.20;99.90
7163;DHT22;3623;47.098;15.446;2023-11-19T06:29:53;2.40;99.90
7163;DHT22;3623;47.098;15.446;2023-11-19T06:32:20;2.20;99.90
7163;DHT22;3623;47.098;15.446;2023-11-19T06:34:47;2.30;99.90
7163;DHT22;3623;47.098;15.446;2023-11-19T06:37:15;2.40;99.90
7163;DHT22;3623;47.098;15.446;2023-11-19T06:39:42;2.30;99.90
7163;DHT22;3623;47.098;15.446;2023-11-19T06:42:11;2.40;99.90
7163;DHT22;3623;47.098;15.446;2023-11-19T06:44:38;2.60;99.90
7163;DHT22;3623;47.098;15.446;2023-11-19T06:47:05;2.40;99.90
7163;DHT22;3623;47.098;15.446;2023-11-19T06:49:32;2.60;99.90
7163;DHT22;3623;47.098;15.446;2023-11-19T06:51:59;2.60;99.90
7163;DHT22;3623;47.098;15.446;2023-11-19T06:54:27;2.60;99.90
7163;DHT22;3623;47.098;15.446;2023-11-19T06:56:54;2.60;99.90
7163;DHT22;3623;47.098;15.446;2023-11-19T06:59:24;2.60;99.90
7163;DHT22;3623;47.098;15.446;2023-11-19T07:01:51;2.70;99.90
7163;DHT22;3623;47.098;15.446;2023-11-19T07:04:18;2.80;99.90
7163;DHT22;3623;47.098;15.446;2023-11-19T07:06:45;2.70;99.90
7163;DHT22;3623;47.098;15.446;2023-11-19T07:09:14;2.90;99.90
7163;DHT22;3623;47.098;15.446;2023-11-19T07:11:41;3.10;99.90
7163;DHT22;3623;47.098;15.446;2023-11-19T07:14:10;3.00;99.90
7163;DHT22;3623;47.098;15.446;2023-11-19T07:16:38;3.00;99.90
7163;DHT22;3623;47.098;15.446;2023-11-19T07:19:05;2.70;99.90
7163;DHT22;3623;47.098;15.446;2023-11-19T07:21:33;2.80;99.90
7163;DHT22;3623;47.098;15.446;2023-11-19T07:24:02;2.80;99.90
7163;DHT22;3623;47.098;15.446;2023-11-19T07:26:29;2.90;99.90
7163;DHT22;3623;47.098;15.446;2023-11-19T07:28:56;3.00;99.90
7163;DHT22;3623;47.098;15.446;2023-11-19T07:31:23;3.00;99.90
7163;DHT22;3623;47.098;15.446;2023-11-19T07:33:53;3.20;99.90
7163;DHT22;3623;47.098;15.446;2023-11-19T07:36:21;3.00;99.90
7163;DHT22;3623;47.098;15.446;2023-11-19T07:38:52;3.00;99.90
7163;DHT22;3623;47.098;15.446;2023-11-19T07:41:19;3.10;99.90
7163;DHT22;3623;47.098;15.446;2023-11-19T07:43:46;3.00;99.90
7163;DHT22;3623;47.098;15.446;2023-11-19T07:46:14;3.00;99.90
7163;DHT22;3623;47.098;15.446;2023-11-19T07:48:41;3.10;99.90
7163;DHT22;3623;47.098;15.446;2023-11-19T07:51:11;3.20;99.90
7163;DHT22;3623;47.098;15.446;2023-11-19T07:53:38;3.10;99.90
7163;DHT22;3623;47.098;15.446;2023-11-19T07:56:07;3.20;99.90
7163;DHT22;3623;47.098;15.446;2023-11-19T07:58:34;3.20;99.90
7163;DHT22;3623;47.098;15.446;2023-11-19T08:01:03;3.40;99.90
7163;DHT22;3623;47.098;15.446;2023-11-19T08:03:32;3.30;99.90
7163;DHT22;3623;47.098;15.446;2023-11-19T08:06:03;3.40;99.90
7163;DHT22;3623;47.098;15.446;2023-11-19T08:08:31;3.30;99.90
7163;DHT22;3623;47.098;15.446;2023-11-19T08:10:59;3.30;99.90
7163;DHT22;3623;47.098;15.446;2023-11-19T08:13:27;3.30;99.90
7163;DHT22;3623;47.098;15.446;2023-11-19T08:15:54;3.40;99.90
7163;DHT22;3623;47.098;15.446;2023-11-19T08:18:22;3.60;99.90
7163;DHT22;3623;47.098;15.446;2023-11-19T08:20:49;3.50;99.90
7163;DHT22;3623;47.098;15.446;2023-11-19T08:23:20;3.70;99.90
7163;DHT22;3623;47.098;15.446;2023-11-19T08:25:49;4.10;99.90
7163;DHT22;3623;47.098;15.446;2023-11-19T08:28:16;4.10;99.90
7163;DHT22;3623;47.098;15.446;2023-11-19T08:30:43;4.30;99.90
7163;DHT22;3623;47.098;15.446;2023-11-19T08:33:11;4.50;99.90
7163;DHT22;3623;47.098;15.446;2023-11-19T08:35:38;4.60;99.90
7163;DHT22;3623;47.098;15.446;2023-11-19T08:38:05;4.70;99.90
7163;DHT22;3623;47.098;15.446;2023-11-19T08:40:33;4.60;99.90
7163;DHT22;3623;47.098;15.446;2023-11-19T08:43:03;4.60;99.90
7163;DHT22;3623;47.098;15.446;2023-11-19T08:45:30;4.50;99.90
7163;DHT22;3623;47.098;15.446;2023-11-19T08:47:58;4.70;99.90
7163;DHT22;3623;47.098;15.446;2023-11-19T08:50:25;4.60;99.90
7163;DHT22;3623;47.098;15.446;2023-11-19T08:52:52;4.80;99.90
7163;DHT22;3623;47.098;15.446;2023-11-19T08:55:19;4.80;99.90
7163;DHT22;3623;47.098;15.446;2023-11-19T08:57:47;4.30;99.90
7163;DHT22;3623;47.098;15.446;2023-11-19T09:00:16;4.90;99.90
7163;DHT22;3623;47.098;15.446;2023-11-19T09:02:44;3.80;99.90
7163;DHT22;3623;47.098;15.446;2023-11-19T09:05:11;5.50;99.90
7163;DHT22;3623;47.098;15.446;2023-11-19T09:07:38;5.50;99.90
7163;DHT22;3623;47.098;15.446;2023-11-19T09:10:06;5.60;99.90
7163;DHT22;3623;47.098;15.446;2023-11-19T09:12:34;5.70;99.90
7163;DHT22;3623;47.098;15.446;2023-11-19T09:15:02;6.00;99.90
7163;DHT22;3623;47.098;15.446;2023-11-19T09:17:30;6.40;99.90
7163;DHT22;3623;47.098;15.446;2023-11-19T09:19:58;6.40;99.90
7163;DHT22;3623;47.098;15.446;2023-11-19T09:22:25;6.30;99.90
7163;DHT22;3623;47.098;15.446;2023-11-19T09:24:52;6.40;99.90
7163;DHT22;3623;47.098;15.446;2023-11-19T09:27:19;6.70;99.90
7163;DHT22;3623;47.098;15.446;2023-11-19T09:29:47;6.70;99.90
7163;DHT22;3623;47.098;15.446;2023-11-19T09:32:15;6.50;99.90
7163;DHT22;3623;47.098;15.446;2023-11-19T09:34:44;6.50;99.90
7163;DHT22;3623;47.098;15.446;2023-11-19T09:37:12;6.20;99.90
7163;DHT22;3623;47.098;15.446;2023-11-19T09:39:39;6.40;99.90
7163;DHT22;3623;47.098;15.446;2023-11-19T09:42:09;6.70;99.90
7163;DHT22;3623;47.098;15.446;2023-11-19T09:44:37;7.00;99.90
7163;DHT22;3623;47.098;15.446;2023-11-19T09:47:06;7.10;99.90
7163;DHT22;3623;47.098;15.446;2023-11-19T09:49:36;7.10;99.90
7163;DHT22;3623;47.098;15.446;2023-11-19T09:52:05;7.10;99.90
7163;DHT22;3623;47.098;15.446;2023-11-19T09:54:33;7.50;99.90
7163;DHT22;3623;47.098;15.446;2023-11-19T09:57:02;7.80;99.90
7163;DHT22;3623;47.098;15.446;2023-11-19T09:59:29;7.70;99.90
7163;DHT22;3623;47.098;15.446;2023-11-19T10:01:57;8.30;99.90
7163;DHT22;3623;47.098;15.446;2023-11-19T10:04:24;9.30;99.90
7163;DHT22;3623;47.098;15.446;2023-11-19T10:06:52;9.90;99.90
7163;DHT22;3623;47.098;15.446;2023-11-19T10:09:21;9.90;99.90
7163;DHT22;3623;47.098;15.446;2023-11-19T10:11:49;9.50;99.90
7163;DHT22;3623;47.098;15.446;2023-11-19T10:14:16;8.90;99.90
7163;DHT22;3623;47.098;15.446;2023-11-19T10:16:45;8.80;99.90
7163;DHT22;3623;47.098;15.446;2023-11-19T10:19:18;8.40;99.90
7163;DHT22;3623;47.098;15.446;2023-11-19T10:21:46;8.50;99.90
7163;DHT22;3623;47.098;15.446;2023-11-19T10:24:13;8.90;99.90
7163;DHT22;3623;47.098;15.446;2023-11-19T10:26:42;9.00;99.90
7163;DHT22;3623;47.098;15.446;2023-11-19T10:29:12;9.30;99.90
7163;DHT22;3623;47.098;15.446;2023-11-19T10:31:40;9.80;99.90
7163;DHT22;3623;47.098;15.446;2023-11-19T10:34:25;10.40;99.90
7163;DHT22;3623;47.098;15.446;2023-11-19T10:36:52;10.80;99.90
7163;DHT22;3623;47.098;15.446;2023-11-19T10:39:20;11.60;99.90
7163;DHT22;3623;47.098;15.446;2023-11-19T10:41:50;12.10;99.90
7163;DHT22;3623;47.098;15.446;2023-11-19T10:44:33;12.50;99.90
7163;DHT22;3623;47.098;15.446;2023-11-19T10:47:01;13.10;99.90
7163;DHT22;3623;47.098;15.446;2023-11-19T10:49:32;12.30;99.90
7163;DHT22;3623;47.098;15.446;2023-11-19T10:52:01;12.10;99.90
7163;DHT22;3623;47.098;15.446;2023-11-19T10:54:31;13.20;99.90
7163;DHT22;3623;47.098;15.446;2023-11-19T10:57:02;13.80;99.90
7163;DHT22;3623;47.098;15.446;2023-11-19T10:59:30;14.30;99.90
7163;DHT22;3623;47.098;15.446;2023-11-19T11:02:00;14.60;99.90
7163;DHT22;3623;47.098;15.446;2023-11-19T11:04:33;15.30;99.90
7163;DHT22;3623;47.098;15.446;2023-11-19T11:07:03;15.30;99.90
7163;DHT22;3623;47.098;15.446;2023-11-19T11:09:31;15.30;99.90
7163;DHT22;3623;47.098;15.446;2023-11-19T11:12:00;14.50;99.90
7163;DHT22;3623;47.098;15.446;2023-11-19T11:14:29;15.70;99.90
7163;DHT22;3623;47.098;15.446;2023-11-19T11:16:58;15.50;99.90
7163;DHT22;3623;47.098;15.446;2023-11-19T11:19:25;15.80;99.90
7163;DHT22;3623;47.098;15.446;2023-11-19T11:21:55;15.90;99.90
7163;DHT22;3623;47.098;15.446;2023-11-19T11:24:41;16.30;99.90
7163;DHT22;3623;47.098;15.446;2023-11-19T11:27:49;17.00;99.90
7163;DHT22;3623;47.098;15.446;2023-11-19T11:30:29;16.50;99.90
7163;DHT22;3623;47.098;15.446;2023-11-19T11:33:10;16.90;99.20
7163;DHT22;3623;47.098;15.446;2023-11-19T11:35:48;17.20;99.40
7163;DHT22;3623;47.098;15.446;2023-11-19T11:38:21;16.70;99.50
7163;DHT22;3623;47.098;15.446;2023-11-19T11:41:16;17.80;98.10
7163;DHT22;3623;47.098;15.446;2023-11-19T11:43:47;18.40;97.00
7163;DHT22;3623;47.098;15.446;2023-11-19T11:46:53;18.30;95.10
7163;DHT22;3623;47.098;15.446;2023-11-19T11:49:27;18.50;95.90
7163;DHT22;3623;47.098;15.446;2023-11-19T11:52:02;18.80;95.70
7163;DHT22;3623;47.098;15.446;2023-11-19T11:54:33;19.60;94.80
7163;DHT22;3623;47.098;15.446;2023-11-19T11:57:07;20.40;93.10
7163;DHT22;3623;47.098;15.446;2023-11-19T11:59:43;19.90;93.60
7163;DHT22;3623;47.098;15.446;2023-11-19T12:02:15;19.30;92.90
7163;DHT22;3623;47.098;15.446;2023-11-19T12:04:42;19.30;92.00
7163;DHT22;3623;47.098;15.446;2023-11-19T12:07:13;19.70;93.60
7163;DHT22;3623;47.098;15.446;2023-11-19T12:09:41;20.20;93.00
7163;DHT22;3623;47.098;15.446;2023-11-19T12:12:18;21.40;91.10
7163;DHT22;3623;47.098;15.446;2023-11-19T12:15:09;20.60;92.00
7163;DHT22;3623;47.098;15.446;2023-11-19T12:17:41;21.10;91.40
7163;DHT22;3623;47.098;15.446;2023-11-19T12:20:11;21.40;90.10
7163;DHT22;3623;47.098;15.446;2023-11-19T12:22:39;21.00;90.30
7163;DHT22;3623;47.098;15.446;2023-11-19T12:25:07;20.40;90.00
7163;DHT22;3623;47.098;15.446;2023-11-19T12:27:35;20.80;90.10
7163;DHT22;3623;47.098;15.446;2023-11-19T12:30:04;21.20;89.40
7163;DHT22;3623;47.098;15.446;2023-11-19T12:32:39;20.00;89.90
7163;DHT22;3623;47.098;15.446;2023-11-19T12:35:07;20.80;90.50
7163;DHT22;3623;47.098;15.446;2023-11-19T12:37:43;20.70;88.50
7163;DHT22;3623;47.098;15.446;2023-11-19T12:40:14;20.90;89.80
7163;DHT22;3623;47.098;15.446;2023-11-19T12:42:42;19.60;89.90
7163;DHT22;3623;47.098;15.446;2023-11-19T12:45:09;18.70;90.60
7163;DHT22;3623;47.098;15.446;2023-11-19T12:47:39;18.10;91.50
7163;DHT22;3623;47.098;15.446;2023-11-19T12:50:08;17.10;91.30
7163;DHT22;3623;47.098;15.446;2023-11-19T12:52:36;17.30;91.70
7163;DHT22;3623;47.098;15.446;2023-11-19T12:55:03;16.70;91.80
7163;DHT22;3623;47.098;15.446;2023-11-19T12:57:38;16.40;92.70
7163;DHT22;3623;47.098;15.446;2023-11-19T13:00:07;15.80;93.70
7163;DHT22;3623;47.098;15.446;2023-11-19T13:02:47;14.50;93.20
7163;DHT22;3623;47.098;15.446;2023-11-19T13:05:23;13.80;94.50
7163;DHT22;3623;47.098;15.446;2023-11-19T13:07:57;13.20;95.50
7163;DHT22;3623;47.098;15.446;2023-11-19T13:10:24;12.40;96.40
7163;DHT22;3623;47.098;15.446;2023-11-19T13:13:05;12.00;96.80
7163;DHT22;3623;47.098;15.446;2023-11-19T13:15:34;12.00;97.40
7163;DHT22;3623;47.098;15.446;2023-11-19T13:18:04;11.90;97.10
7163;DHT22;3623;47.098;15.446;2023-11-19T13:20:33;11.90;98.50
7163;DHT22;3623;47.098;15.446;2023-11-19T13:23:02;11.70;98.60
7163;DHT22;3623;47.098;15.446;2023-11-19T13:25:30;11.50;98.60
7163;DHT22;3623;47.098;15.446;2023-11-19T13:27:59;11.40;98.30
7163;DHT22;3623;47.098;15.446;2023-11-19T13:30:26;11.30;99.00
7163;DHT22;3623;47.098;15.446;2023-11-19T13:32:55;11.00;98.40
7163;DHT22;3623;47.098;15.446;2023-11-19T13:35:24;11.00;99.20
7163;DHT22;3623;47.098;15.446;2023-11-19T13:37:53;10.80;99.90
7163;DHT22;3623;47.098;15.446;2023-11-19T13:40:21;10.60;99.90
7163;DHT22;3623;47.098;15.446;2023-11-19T13:42:50;10.50;99.90
7163;DHT22;3623;47.098;15.446;2023-11-19T13:45:18;10.50;99.90
7163;DHT22;3623;47.098;15.446;2023-11-19T13:47:46;10.40;99.90
7163;DHT22;3623;47.098;15.446;2023-11-19T13:50:15;10.20;99.90
7163;DHT22;3623;47.098;15.446;2023-11-19T13:52:45;10.10;99.90
7163;DHT22;3623;47.098;15.446;2023-11-19T13:55:14;10.10;99.90
7163;DHT22;3623;47.098;15.446;2023-11-19T13:57:42;10.10;99.90
7163;DHT22;3623;47.098;15.446;2023-11-19T14:00:11;10.20;99.90
7163;DHT22;3623;47.098;15.446;2023-11-19T14:02:39;10.00;99.90
7163;DHT22;3623;47.098;15.446;2023-11-19T14:05:07;9.80;99.90
7163;DHT22;3623;47.098;15.446;2023-11-19T14:07:34;9.80;99.90
7163;DHT22;3623;47.098;15.446;2023-11-19T14:10:04;10.40;99.90
7163;DHT22;3623;47.098;15.446;2023-11-19T14:12:32;9.60;99.90
7163;DHT22;3623;47.098;15.446;2023-11-19T14:15:00;9.50;99.90
7163;DHT22;3623;47.098;15.446;2023-11-19T14:17:28;9.30;99.90
7163;DHT22;3623;47.098;15.446;2023-11-19T14:19:55;9.30;99.90
7163;DHT22;3623;47.098;15.446;2023-11-19T14:22:23;9.50;99.90
7163;DHT22;3623;47.098;15.446;2023-11-19T14:24:50;9.20;99.90
7163;DHT22;3623;47.098;15.446;2023-11-19T14:27:19;9.30;99.90
7163;DHT22;3623;47.098;15.446;2023-11-19T14:29:48;9.10;99.90
7163;DHT22;3623;47.098;15.446;2023-11-19T14:32:17;9.10;99.90
7163;DHT22;3623;47.098;15.446;2023-11-19T14:34:45;8.90;99.90
7163;DHT22;3623;47.098;15.446;2023-11-19T14:37:13;8.80;99.90
7163;DHT22;3623;47.098;15.446;2023-11-19T14:39:42;8.70;99.90
7163;DHT22;3623;47.098;15.446;2023-11-19T14:42:10;8.80;99.90
7163;DHT22;3623;47.098;15.446;2023-11-19T14:44:38;8.90;99.90
7163;DHT22;3623;47.098;15.446;2023-11-19T14:47:06;8.70;99.90
7163;DHT22;3623;47.098;15.446;2023-11-19T14:49:34;9.00;99.90
7163;DHT22;3623;47.098;15.446;2023-11-19T14:52:04;8.60;99.90
7163;DHT22;3623;47.098;15.446;2023-11-19T14:54:31;8.70;99.90
7163;DHT22;3623;47.098;15.446;2023-11-19T14:56:58;8.60;99.90
7163;DHT22;3623;47.098;15.446;2023-11-19T14:59:26;8.50;99.90
7163;DHT22;3623;47.098;15.446;2023-11-19T15:01:56;8.10;99.90
7163;DHT22;3623;47.098;15.446;2023-11-19T15:04:24;8.40;99.90
7163;DHT22;3623;47.098;15.446;2023-11-19T15:06:52;8.60;99.90
7163;DHT22;3623;47.098;15.446;2023-11-19T15:09:19;8.40;99.90
7163;DHT22;3623;47.098;15.446;2023-11-19T15:11:47;8.40;99.90
7163;DHT22;3623;47.098;15.446;2023-11-19T15:14:14;8.20;99.90
7163;DHT22;3623;47.098;15.446;2023-11-19T15:16:44;8.10;99.90
7163;DHT22;3623;47.098;15.446;2023-11-19T15:19:13;8.10;99.90
7163;DHT22;3623;47.098;15.446;2023-11-19T15:21:41;8.10;99.90
7163;DHT22;3623;47.098;15.446;2023-11-19T15:24:08;8.00;99.90
7163;DHT22;3623;47.098;15.446;2023-11-19T15:26:36;8.10;99.90
7163;DHT22;3623;47.098;15.446;2023-11-19T15:29:03;8.10;99.90
7163;DHT22;3623;47.098;15.446;2023-11-19T15:31:32;8.00;99.90
7163;DHT22;3623;47.098;15.446;2023-11-19T15:33:59;8.20;99.90
7163;DHT22;3623;47.098;15.446;2023-11-19T15:36:28;7.80;99.90
7163;DHT22;3623;47.098;15.446;2023-11-19T15:38:56;7.90;99.90
7163;DHT22;3623;47.098;15.446;2023-11-19T15:41:23;7.70;99.90
7163;DHT22;3623;47.098;15.446;2023-11-19T15:43:50;7.90;99.90
7163;DHT22;3623;47.098;15.446;2023-11-19T15:46:17;7.60;99.90
7163;DHT22;3623;47.098;15.446;2023-11-19T15:48:45;7.70;99.90
7163;DHT22;3623;47.098;15.446;2023-11-19T15:51:12;7.60;99.90
7163;DHT22;3623;47.098;15.446;2023-11-19T15:53:41;7.60;99.90
7163;DHT22;3623;47.098;15.446;2023-11-19T15:56:09;7.50;99.90
7163;DHT22;3623;47.098;15.446;2023-11-19T15:58:36;7.50;99.90
7163;DHT22;3623;47.098;15.446;2023-11-19T16:01:05;7.50;99.90
7163;DHT22;3623;47.098;15.446;2023-11-19T16:03:34;7.20;99.90
7163;DHT22;3623;47.098;15.446;2023-11-19T16:06:02;7.50;99.90
7163;DHT22;3623;47.098;15.446;2023-11-19T16:08:29;7.30;99.90
7163;DHT22;3623;47.098;15.446;2023-11-19T16:10:59;7.20;99.90